Time;durP1;ratioP1;P1;durP2;ratioP2;P2;SDS_P1;SDS_P2;PMS_P1;PMS_P2;Temp;Humidity;BMP_temperature;BMP_pressure;BME280_temperature;BME280_humidity;BME280_pressure;Samples;Min_cycle;Max_cycle;Signal;HPM_P1;HPM_P2
2022/10/07 00:01:00;;;;;;;;;;;;;;;;;;4979435;28;19989;-78
2022/10/07 00:03:26;;;;;;;;;;;;;;;;;;4992152;28;19910;-81
2022/10/07 00:06:21;;;;;;;;;;;;;;;;;;4980287;28;20218;-80
2022/10/07 00:08:47;;;;;;;;;;;;;;;;;;4965870;28;19921;-80
2022/10/07 00:11:14;;;;;;;;;;;;;;;;;;4978651;28;19920;-80
2022/10/07 00:13:40;;;;;;;;;;;;;;;;;;4979465;28;20226;-79
2022/10/07 00:16:06;;;;;;;;;;;;;;;;;;4982203;28;19945;-80
2022/10/07 00:18:32;;;;;;;;;;;;;;;;;;4982205;28;19929;-80
2022/10/07 00:21:00;;;;;;;;;;;;;;;;;;4982700;28;19929;-81
2022/10/07 00:23:26;;;;;;;;;;;;;;;;;;4982868;28;19910;-81
2022/10/07 00:25:51;;;;;;;;;;;;;;;;;;4982756;28;19917;-79
2022/10/07 00:28:16;;;;;;;;;;;;;;;;;;4982008;28;19980;-80
2022/10/07 00:30:41;;;;;;;;;;;;;;;;;;4981203;28;19910;-82
2022/10/07 00:33:06;;;;;;;;;;;;;;;;;;4982443;28;19921;-79
2022/10/07 00:35:33;;;;;;;;;;;;;;;;;;4981737;28;20146;-81
2022/10/07 00:37:59;;;;;;;;;;;;;;;;;;4981045;28;19945;-79
2022/10/07 00:40:31;;;;;;;;;;;;;;;;;;4981800;28;20053;-81
2022/10/07 00:42:58;;;;;;;;;;;;;;;;;;4979932;28;19981;-80
2022/10/07 00:45:23;;;;;;;;;;;;;;;;;;4981632;28;19922;-80
2022/10/07 00:47:50;;;;;;;;;;;;;;;;;;4980614;28;19975;-81
2022/10/07 00:50:20;;;;;;;;;;;;;;;;;;4982346;28;19973;-82
2022/10/07 00:52:54;;;;;;;;;;;;;;;;;;4982121;28;19925;-81
2022/10/07 00:55:22;;;;;;;;;;;;;;;;;;4982656;28;19957;-82
2022/10/07 00:57:47;;;;;;;;;;;;;;;;;;4982631;28;19972;-78
2022/10/07 01:00:13;;;;;;;;;;;;;;;;;;4977240;28;20110;-82
2022/10/07 01:02:39;;;;;;;;;;;;;;;;;;4981822;28;19910;-81
2022/10/07 01:05:05;;;;;;;;;;;;;;;;;;4982477;28;19922;-82
2022/10/07 01:07:31;;;;;;;;;;;;;;;;;;4981752;28;19918;-80
2022/10/07 01:09:58;;;;;;;;;;;;;;;;;;4982244;28;19957;-79
2022/10/07 01:12:30;;;;;;;;;;;;;;;;;;4981755;28;19997;-82
2022/10/07 01:15:18;;;;;;;;;;;;;;;;;;4973065;28;19928;-79
2022/10/07 01:17:48;;;;;;;;;;;;;;;;;;4974645;28;19910;-81
2022/10/07 01:20:14;;;;;;;;;;;;;;;;;;4981064;28;19917;-79
2022/10/07 01:22:48;;;;;;;;;;;;;;;;;;4980103;28;19910;-81
2022/10/07 01:25:17;;;;;;;;;;;;;;;;;;4981786;28;19914;-79
2022/10/07 01:27:44;;;;;;;;;;;;;;;;;;4982061;28;19910;-79
2022/10/07 01:30:10;;;;;;;;;;;;;;;;;;4982137;28;19929;-80
2022/10/07 01:32:35;;;;;;;;;;;;;;;;;;4981685;28;20116;-81
2022/10/07 01:35:04;;;;;;;;;;;;;;;;;;4981087;28;20221;-78
2022/10/07 01:37:33;;;;;;;;;;;;;;;;;;4981704;28;19910;-80
2022/10/07 01:40:02;;;;;;;;;;;;;;;;;;4982359;28;19909;-79
2022/10/07 01:42:28;;;;;;;;;;;;;;;;;;4981789;28;19945;-81
2022/10/07 01:44:55;;;;;;;;;;;;;;;;;;4981743;28;19949;-81
2022/10/07 01:47:20;;;;;;;;;;;;;;;;;;4973863;28;20102;-79
2022/10/07 01:49:46;;;;;;;;;;;;;;;;;;4973773;28;19911;-81
2022/10/07 01:52:31;;;;;;;;;;;;;;;;;;4980234;28;19910;-81
2022/10/07 01:55:29;;;;;;;;;;;;;;;;;;4980917;28;19985;-81
2022/10/07 01:57:57;;;;;;;;;;;;;;;;;;4968445;28;19920;-84
2022/10/07 02:00:23;;;;;;;;;;;;;;;;;;4981333;28;19922;-81
2022/10/07 02:02:54;;;;;;;;;;;;;;;;;;4995624;28;20290;-79
2022/10/07 02:05:26;;;;;;;;;;;;;;;;;;4975417;28;19941;-82
2022/10/07 02:07:54;;;;;;;;;;;;;;;;;;4981397;28;19973;-80
2022/10/07 02:10:35;;;;;;;;;;;;;;;;;;4978234;28;20099;-82
2022/10/07 02:13:01;;;;;;;;;;;;;;;;;;4980386;28;19912;-81
2022/10/07 02:15:30;;;;;;;;;;;;;;;;;;4984270;28;19910;-81
2022/10/07 02:17:59;;;;;;;;;;;;;;;;;;4985439;28;19929;-79
2022/10/07 02:20:27;;;;;;;;;;;;;;;;;;4984947;28;19922;-79
2022/10/07 02:22:54;;;;;;;;;;;;;;;;;;4985455;28;19913;-80
2022/10/07 02:25:20;;;;;;;;;;;;;;;;;;4984895;28;20118;-79
2022/10/07 02:27:46;;;;;;;;;;;;;;;;;;4979887;28;19910;-79
2022/10/07 02:30:13;;;;;;;;;;;;;;;;;;4985163;28;19921;-80
2022/10/07 02:32:41;;;;;;;;;;;;;;;;;;4985184;28;19977;-80
2022/10/07 02:35:12;;;;;;;;;;;;;;;;;;4984933;28;19957;-80
2022/10/07 02:37:38;;;;;;;;;;;;;;;;;;4983885;28;20088;-81
2022/10/07 02:40:04;;;;;;;;;;;;;;;;;;4984561;28;20354;-82
2022/10/07 02:42:29;;;;;;;;;;;;;;;;;;4984794;28;19942;-80
2022/10/07 02:44:57;;;;;;;;;;;;;;;;;;4985135;28;19914;-80
2022/10/07 02:47:39;;;;;;;;;;;;;;;;;;4985109;28;19918;-80
2022/10/07 02:50:06;;;;;;;;;;;;;;;;;;4980104;28;19917;-81
2022/10/07 02:52:32;;;;;;;;;;;;;;;;;;4984890;28;19989;-81
2022/10/07 02:55:03;;;;;;;;;;;;;;;;;;4984805;28;19917;-81
2022/10/07 02:57:30;;;;;;;;;;;;;;;;;;4984840;28;19914;-79
2022/10/07 02:59:56;;;;;;;;;;;;;;;;;;4984411;28;19914;-81
2022/10/07 03:02:26;;;;;;;;;;;;;;;;;;4983947;28;19913;-80
2022/10/07 03:04:52;;;;;;;;;;;;;;;;;;4984405;28;19975;-81
2022/10/07 03:07:17;;;;;;;;;;;;;;;;;;4983894;28;19930;-81
2022/10/07 03:09:42;;;;;;;;;;;;;;;;;;4984459;28;20156;-80
2022/10/07 03:12:08;;;;;;;;;;;;;;;;;;4977679;28;19929;-81
2022/10/07 03:14:34;;;;;;;;;;;;;;;;;;4979051;28;19921;-81
2022/10/07 03:16:59;;;;;;;;;;;;;;;;;;4984445;28;20277;-79
2022/10/07 03:19:25;;;;;;;;;;;;;;;;;;4984109;28;19951;-81
2022/10/07 03:21:51;;;;;;;;;;;;;;;;;;4983281;28;20202;-80
2022/10/07 03:24:17;;;;;;;;;;;;;;;;;;4983194;28;19960;-78
2022/10/07 03:26:42;;;;;;;;;;;;;;;;;;4983855;28;20109;-81
2022/10/07 03:29:09;;;;;;;;;;;;;;;;;;4983872;28;19921;-80
2022/10/07 03:31:35;;;;;;;;;;;;;;;;;;4983331;28;20213;-82
2022/10/07 03:34:00;;;;;;;;;;;;;;;;;;4983611;28;19918;-81
2022/10/07 03:36:25;;;;;;;;;;;;;;;;;;4982068;28;19920;-81
2022/10/07 03:38:50;;;;;;;;;;;;;;;;;;4983910;28;19914;-80
2022/10/07 03:41:16;;;;;;;;;;;;;;;;;;4981246;28;19913;-80
2022/10/07 03:43:42;;;;;;;;;;;;;;;;;;4973203;28;19928;-83
2022/10/07 03:46:07;;;;;;;;;;;;;;;;;;4979227;28;19977;-78
2022/10/07 03:48:33;;;;;;;;;;;;;;;;;;4983892;28;19909;-79
2022/10/07 03:50:58;;;;;;;;;;;;;;;;;;4983588;28;19924;-80
2022/10/07 03:53:24;;;;;;;;;;;;;;;;;;4983389;28;19961;-79
2022/10/07 03:55:50;;;;;;;;;;;;;;;;;;4983509;28;19917;-80
2022/10/07 03:58:15;;;;;;;;;;;;;;;;;;4983484;28;19942;-81
2022/10/07 04:00:41;;;;;;;;;;;;;;;;;;4983325;28;19984;-79
2022/10/07 04:03:06;;;;;;;;;;;;;;;;;;4983475;28;19993;-80
2022/10/07 04:05:32;;;;;;;;;;;;;;;;;;4982935;28;19913;-78
2022/10/07 04:07:57;;;;;;;;;;;;;;;;;;4983186;28;19921;-79
2022/10/07 04:10:23;;;;;;;;;;;;;;;;;;4979142;28;19938;-79
2022/10/07 04:12:50;;;;;;;;;;;;;;;;;;4981611;28;19932;-80
2022/10/07 04:15:15;;;;;;;;;;;;;;;;;;4973970;28;19910;-80
2022/10/07 04:17:41;;;;;;;;;;;;;;;;;;4981669;28;20217;-79
2022/10/07 04:20:07;;;;;;;;;;;;;;;;;;4982574;28;19925;-79
2022/10/07 04:22:32;;;;;;;;;;;;;;;;;;4982968;28;20324;-79
2022/10/07 04:27:41;;;;;;;;;;;;;;;;;;4983045;28;19937;-80
2022/10/07 04:30:07;;;;;;;;;;;;;;;;;;4982766;28;19989;-81
2022/10/07 04:32:33;;;;;;;;;;;;;;;;;;4982817;28;19913;-80
2022/10/07 04:34:59;;;;;;;;;;;;;;;;;;4982120;28;19934;-79
2022/10/07 04:37:25;;;;;;;;;;;;;;;;;;4982584;28;20210;-80
2022/10/07 04:39:50;;;;;;;;;;;;;;;;;;4982649;28;19913;-80
2022/10/07 04:44:59;;;;;;;;;;;;;;;;;;4982432;28;19921;-79
2022/10/07 04:47:24;;;;;;;;;;;;;;;;;;4982680;28;19914;-79
2022/10/07 04:49:52;;;;;;;;;;;;;;;;;;4979534;28;19914;-79
2022/10/07 04:52:17;;;;;;;;;;;;;;;;;;4982041;28;19922;-80
2022/10/07 04:54:43;;;;;;;;;;;;;;;;;;4982420;28;19910;-80
2022/10/07 04:57:11;;;;;;;;;;;;;;;;;;4982356;28;19921;-82
2022/10/07 04:59:36;;;;;;;;;;;;;;;;;;4982565;28;19914;-79
2022/10/07 05:02:01;;;;;;;;;;;;;;;;;;4982168;28;19921;-81
2022/10/07 05:04:26;;;;;;;;;;;;;;;;;;4981435;28;20114;-79
2022/10/07 05:06:52;;;;;;;;;;;;;;;;;;4981219;28;19914;-82
2022/10/07 05:09:17;;;;;;;;;;;;;;;;;;4982014;28;19960;-81
2022/10/07 05:11:42;;;;;;;;;;;;;;;;;;4982166;28;19914;-81
2022/10/07 05:14:07;;;;;;;;;;;;;;;;;;4981063;28;19917;-81
2022/10/07 05:16:33;;;;;;;;;;;;;;;;;;4982286;28;19956;-81
2022/10/07 05:18:58;;;;;;;;;;;;;;;;;;4982126;28;19922;-79
2022/10/07 05:21:23;;;;;;;;;;;;;;;;;;4981977;28;19933;-81
2022/10/07 05:23:49;;;;;;;;;;;;;;;;;;4981693;28;19922;-79
2022/10/07 05:26:14;;;;;;;;;;;;;;;;;;4981370;28;19914;-80
2022/10/07 05:28:40;;;;;;;;;;;;;;;;;;4981947;28;19933;-81
2022/10/07 05:31:13;;;;;;;;;;;;;;;;;;4981073;28;19914;-79
2022/10/07 05:33:38;;;;;;;;;;;;;;;;;;4981627;28;19964;-79
2022/10/07 05:36:04;;;;;;;;;;;;;;;;;;4979995;28;19949;-81
2022/10/07 05:38:30;;;;;;;;;;;;;;;;;;4978467;28;19917;-79
2022/10/07 05:40:58;;;;;;;;;;;;;;;;;;4981340;28;19913;-81
2022/10/07 05:43:24;;;;;;;;;;;;;;;;;;4976142;28;19918;-82
2022/10/07 05:46:00;;;;;;;;;;;;;;;;;;4982146;28;19910;-81
2022/10/07 05:48:27;;;;;;;;;;;;;;;;;;4985975;28;19937;-79
2022/10/07 05:50:56;;;;;;;;;;;;;;;;;;4984941;28;19964;-79
2022/10/07 05:53:23;;;;;;;;;;;;;;;;;;4985209;28;20014;-80
2022/10/07 05:55:49;;;;;;;;;;;;;;;;;;4985405;28;19917;-80
2022/10/07 05:58:15;;;;;;;;;;;;;;;;;;4985578;28;19914;-80
2022/10/07 06:00:47;;;;;;;;;;;;;;;;;;4985324;28;20181;-78
2022/10/07 06:03:13;;;;;;;;;;;;;;;;;;4977734;28;19914;-79
2022/10/07 06:05:38;;;;;;;;;;;;;;;;;;4978944;28;19941;-80
2022/10/07 06:08:03;;;;;;;;;;;;;;;;;;4984350;28;19914;-79
2022/10/07 06:13:12;;;;;;;;;;;;;;;;;;4984489;28;19945;-79
2022/10/07 06:15:37;;;;;;;;;;;;;;;;;;4984777;28;20190;-80
2022/10/07 06:18:03;;;;;;;;;;;;;;;;;;4980431;28;20158;-78
2022/10/07 06:20:28;;;;;;;;;;;;;;;;;;4981372;28;19961;-78
2022/10/07 06:22:54;;;;;;;;;;;;;;;;;;4984659;28;19909;-79
2022/10/07 06:25:19;;;;;;;;;;;;;;;;;;4984461;28;20284;-79
2022/10/07 06:27:45;;;;;;;;;;;;;;;;;;4984382;28;19914;-79
2022/10/07 06:30:11;;;;;;;;;;;;;;;;;;4984105;28;19914;-77
2022/10/07 06:32:37;;;;;;;;;;;;;;;;;;4984659;28;19929;-77
2022/10/07 06:35:02;;;;;;;;;;;;;;;;;;4984009;28;19936;-79
2022/10/07 06:37:31;;;;;;;;;;;;;;;;;;4980240;28;19910;-80
2022/10/07 06:39:56;;;;;;;;;;;;;;;;;;4984259;28;20157;-80
2022/10/07 06:42:22;;;;;;;;;;;;;;;;;;4983901;28;19913;-77
2022/10/07 06:44:47;;;;;;;;;;;;;;;;;;4983780;28;20003;-76
2022/10/07 06:47:12;;;;;;;;;;;;;;;;;;4978780;28;19922;-77
2022/10/07 06:49:38;;;;;;;;;;;;;;;;;;4979200;28;20160;-77
2022/10/07 06:52:03;;;;;;;;;;;;;;;;;;4966795;28;19918;-77
2022/10/07 06:54:28;;;;;;;;;;;;;;;;;;4968372;28;20057;-77
2022/10/07 06:56:54;;;;;;;;;;;;;;;;;;4969972;28;19922;-79
2022/10/07 06:59:19;;;;;;;;;;;;;;;;;;4973076;28;19914;-77
2022/10/07 07:01:44;;;;;;;;;;;;;;;;;;4971543;28;19914;-77
2022/10/07 07:04:09;;;;;;;;;;;;;;;;;;4965850;28;19937;-80
2022/10/07 07:06:35;;;;;;;;;;;;;;;;;;4970591;28;19965;-77
2022/10/07 07:09:04;;;;;;;;;;;;;;;;;;4969586;28;19922;-77
2022/10/07 07:11:35;;;;;;;;;;;;;;;;;;4969904;28;19914;-76
2022/10/07 07:14:02;;;;;;;;;;;;;;;;;;4968282;28;20114;-77
2022/10/07 07:16:27;;;;;;;;;;;;;;;;;;4978684;28;20165;-77
2022/10/07 07:18:54;;;;;;;;;;;;;;;;;;4980277;28;19929;-76
2022/10/07 07:21:20;;;;;;;;;;;;;;;;;;4982602;28;19921;-76
2022/10/07 07:23:45;;;;;;;;;;;;;;;;;;4983321;28;19922;-78
2022/10/07 07:26:10;;;;;;;;;;;;;;;;;;4982751;28;19960;-78
2022/10/07 07:28:36;;;;;;;;;;;;;;;;;;4982301;28;19922;-77
2022/10/07 07:31:08;;;;;;;;;;;;;;;;;;4983034;28;19914;-76
2022/10/07 07:33:33;;;;;;;;;;;;;;;;;;4981985;28;20081;-78
2022/10/07 07:35:59;;;;;;;;;;;;;;;;;;4982011;28;20194;-78
2022/10/07 07:38:24;;;;;;;;;;;;;;;;;;4982671;28;19921;-77
2022/10/07 07:40:49;;;;;;;;;;;;;;;;;;4982683;28;19914;-77
2022/10/07 07:43:14;;;;;;;;;;;;;;;;;;4982247;28;19946;-77
2022/10/07 07:45:40;;;;;;;;;;;;;;;;;;4982271;28;19922;-77
2022/10/07 07:48:05;;;;;;;;;;;;;;;;;;4982747;28;19921;-77
2022/10/07 07:50:30;;;;;;;;;;;;;;;;;;4979870;28;19953;-76
2022/10/07 07:52:56;;;;;;;;;;;;;;;;;;4982806;28;19914;-77
2022/10/07 07:55:21;;;;;;;;;;;;;;;;;;4982133;28;19922;-76
2022/10/07 07:57:47;;;;;;;;;;;;;;;;;;4978631;28;19918;-78
2022/10/07 08:00:15;;;;;;;;;;;;;;;;;;4980831;28;19922;-77
2022/10/07 08:02:40;;;;;;;;;;;;;;;;;;4982647;28;19913;-76
2022/10/07 08:05:06;;;;;;;;;;;;;;;;;;4980719;28;19985;-77
2022/10/07 08:07:32;;;;;;;;;;;;;;;;;;4982101;28;19949;-77
2022/10/07 08:09:58;;;;;;;;;;;;;;;;;;4982319;28;19921;-77
2022/10/07 08:12:23;;;;;;;;;;;;;;;;;;4982974;28;19953;-77
2022/10/07 08:14:48;;;;;;;;;;;;;;;;;;4982517;28;20018;-77
2022/10/07 08:17:14;;;;;;;;;;;;;;;;;;4982912;28;19914;-77
2022/10/07 08:19:39;;;;;;;;;;;;;;;;;;4979867;28;20028;-77
2022/10/07 08:22:06;;;;;;;;;;;;;;;;;;4982343;28;19961;-77
2022/10/07 08:24:31;;;;;;;;;;;;;;;;;;4978864;28;19967;-77
2022/10/07 08:26:56;;;;;;;;;;;;;;;;;;4978586;28;19957;-77
2022/10/07 08:29:22;;;;;;;;;;;;;;;;;;4980642;28;20278;-77
2022/10/07 08:31:48;;;;;;;;;;;;;;;;;;4980109;28;19917;-77
2022/10/07 08:34:13;;;;;;;;;;;;;;;;;;4979144;28;20035;-77
2022/10/07 08:36:39;;;;;;;;;;;;;;;;;;4980262;28;20283;-78
2022/10/07 08:39:04;;;;;;;;;;;;;;;;;;4980913;28;20376;-78
2022/10/07 08:41:33;;;;;;;;;;;;;;;;;;4981652;28;19952;-78
2022/10/07 08:44:05;;;;;;;;;;;;;;;;;;4980897;28;19929;-77
2022/10/07 08:46:32;;;;;;;;;;;;;;;;;;4981840;28;19931;-77
2022/10/07 08:48:59;;;;;;;;;;;;;;;;;;4977811;28;19929;-77
2022/10/07 08:51:34;;;;;;;;;;;;;;;;;;4975746;28;19956;-77
2022/10/07 08:53:59;;;;;;;;;;;;;;;;;;4979238;28;19914;-76
2022/10/07 08:56:25;;;;;;;;;;;;;;;;;;4981394;28;19917;-77
2022/10/07 08:58:54;;;;;;;;;;;;;;;;;;4981765;28;19986;-78
2022/10/07 09:01:39;;;;;;;;;;;;;;;;;;4981280;28;19917;-77
2022/10/07 09:04:23;;;;;;;;;;;;;;;;;;4979004;28;19951;-76
2022/10/07 09:06:59;;;;;;;;;;;;;;;;;;4980985;28;19918;-77
2022/10/07 09:09:27;;;;;;;;;;;;;;;;;;4979517;28;19984;-77
2022/10/07 09:11:54;;;;;;;;;;;;;;;;;;4980289;28;19979;-77
2022/10/07 09:14:29;;;;;;;;;;;;;;;;;;4980672;28;19936;-77
2022/10/07 09:17:11;;;;;;;;;;;;;;;;;;4980809;28;20367;-77
2022/10/07 09:19:45;;;;;;;;;;;;;;;;;;4973725;28;19914;-77
2022/10/07 09:22:42;;;;;;;;;;;;;;;;;;4979944;28;19914;-77
2022/10/07 09:25:10;;;;;;;;;;;;;;;;;;4948151;28;19914;-77
2022/10/07 09:27:36;;;;;;;;;;;;;;;;;;4980772;28;19922;-77
2022/10/07 09:30:01;;;;;;;;;;;;;;;;;;4980732;28;19945;-78
2022/10/07 09:32:26;;;;;;;;;;;;;;;;;;4981063;28;19936;-77
2022/10/07 09:34:52;;;;;;;;;;;;;;;;;;4979668;28;19984;-77
2022/10/07 09:37:19;;;;;;;;;;;;;;;;;;4981113;28;19923;-77
2022/10/07 09:39:46;;;;;;;;;;;;;;;;;;4980660;28;19914;-77
2022/10/07 09:42:27;;;;;;;;;;;;;;;;;;4976246;28;19989;-78
2022/10/07 09:44:53;;;;;;;;;;;;;;;;;;4976545;28;20114;-77
2022/10/07 09:47:23;;;;;;;;;;;;;;;;;;4980665;28;19929;-77
2022/10/07 09:49:50;;;;;;;;;;;;;;;;;;4979639;28;19914;-77
2022/10/07 09:52:22;;;;;;;;;;;;;;;;;;4980937;28;19914;-77
2022/10/07 09:54:48;;;;;;;;;;;;;;;;;;4981174;28;19952;-77
2022/10/07 09:57:33;;;;;;;;;;;;;;;;;;4974673;28;19952;-77
2022/10/07 10:00:11;;;;;;;;;;;;;;;;;;4980890;28;19918;-78
2022/10/07 10:02:36;;;;;;;;;;;;;;;;;;4980515;28;19948;-78
2022/10/07 10:05:02;;;;;;;;;;;;;;;;;;4980186;28;19914;-78
2022/10/07 10:07:35;;;;;;;;;;;;;;;;;;4980599;28;19914;-78
2022/10/07 10:10:04;;;;;;;;;;;;;;;;;;4980424;28;19913;-77
2022/10/07 10:12:36;;;;;;;;;;;;;;;;;;4980416;28;19921;-78
2022/10/07 10:15:15;;;;;;;;;;;;;;;;;;4981151;28;19916;-81
2022/10/07 10:17:40;;;;;;;;;;;;;;;;;;4976956;28;19922;-78
2022/10/07 10:20:23;;;;;;;;;;;;;;;;;;4980347;28;19914;-78
2022/10/07 10:22:49;;;;;;;;;;;;;;;;;;4980647;28;19971;-78
2022/10/07 10:28:09;;;;;;;;;;;;;;;;;;4980861;28;20059;-79
2022/10/07 10:30:38;;;;;;;;;;;;;;;;;;4981124;28;19918;-78
2022/10/07 10:33:13;;;;;;;;;;;;;;;;;;4981425;28;19914;-78
2022/10/07 10:35:53;;;;;;;;;;;;;;;;;;4983594;28;19914;-78
2022/10/07 10:38:42;;;;;;;;;;;;;;;;;;4984223;28;20054;-78
2022/10/07 10:41:16;;;;;;;;;;;;;;;;;;4963412;28;19921;-77
2022/10/07 10:43:41;;;;;;;;;;;;;;;;;;4982493;28;19914;-78
2022/10/07 10:46:12;;;;;;;;;;;;;;;;;;4983816;28;20010;-78
2022/10/07 10:48:49;;;;;;;;;;;;;;;;;;4981441;28;19922;-78
2022/10/07 10:51:41;;;;;;;;;;;;;;;;;;4983130;28;19913;-77
2022/10/07 10:54:22;;;;;;;;;;;;;;;;;;4981868;28;19929;-78
2022/10/07 10:56:59;;;;;;;;;;;;;;;;;;4982540;28;20066;-77
2022/10/07 10:59:36;;;;;;;;;;;;;;;;;;4978755;28;20171;-77
2022/10/07 11:02:21;;;;;;;;;;;;;;;;;;4979634;28;19913;-77
2022/10/07 11:04:49;;;;;;;;;;;;;;;;;;4981310;28;19926;-78
2022/10/07 11:07:20;;;;;;;;;;;;;;;;;;4982558;28;19932;-79
2022/10/07 11:09:51;;;;;;;;;;;;;;;;;;4982451;28;19961;-78
2022/10/07 11:12:28;;;;;;;;;;;;;;;;;;4982945;28;19921;-78
2022/10/07 11:14:58;;;;;;;;;;;;;;;;;;4981558;28;19949;-77
2022/10/07 11:17:27;;;;;;;;;;;;;;;;;;4981633;28;19973;-77
2022/10/07 11:19:58;;;;;;;;;;;;;;;;;;4981085;28;19933;-80
2022/10/07 11:22:29;;;;;;;;;;;;;;;;;;4979669;28;19913;-78
2022/10/07 11:24:59;;;;;;;;;;;;;;;;;;4981254;28;19914;-78
2022/10/07 11:27:32;;;;;;;;;;;;;;;;;;4981889;28;19925;-79
2022/10/07 11:30:07;;;;;;;;;;;;;;;;;;4979628;28;19914;-78
2022/10/07 11:32:54;;;;;;;;;;;;;;;;;;4980769;28;20110;-79
2022/10/07 11:35:56;;;;;;;;;;;;;;;;;;4981802;28;19914;-78
2022/10/07 11:38:25;;;;;;;;;;;;;;;;;;4920593;29;19922;-79
2022/10/07 11:40:55;;;;;;;;;;;;;;;;;;4970849;28;19913;-78
2022/10/07 11:43:24;;;;;;;;;;;;;;;;;;4980481;28;19910;-78
2022/10/07 11:46:01;;;;;;;;;;;;;;;;;;4981013;28;19922;-80
2022/10/07 11:48:33;;;;;;;;;;;;;;;;;;4983069;28;19918;-79
2022/10/07 11:51:01;;;;;;;;;;;;;;;;;;4982803;28;19906;-78
2022/10/07 11:53:27;;;;;;;;;;;;;;;;;;4979965;28;19917;-79
2022/10/07 11:56:00;;;;;;;;;;;;;;;;;;4979504;28;19960;-79
2022/10/07 11:58:30;;;;;;;;;;;;;;;;;;4982455;28;19918;-77
2022/10/07 12:01:14;;;;;;;;;;;;;;;;;;4982046;28;19910;-78
2022/10/07 12:03:39;;;;;;;;;;;;;;;;;;4978298;28;19941;-79
2022/10/07 12:06:12;;;;;;;;;;;;;;;;;;4981889;28;19921;-79
2022/10/07 12:08:39;;;;;;;;;;;;;;;;;;4981560;28;20040;-78
2022/10/07 12:11:14;;;;;;;;;;;;;;;;;;4959519;28;20165;-79
2022/10/07 12:13:40;;;;;;;;;;;;;;;;;;4982436;28;19929;-79
2022/10/07 12:16:24;;;;;;;;;;;;;;;;;;4981856;28;19929;-78
2022/10/07 12:19:05;;;;;;;;;;;;;;;;;;4980877;28;19910;-79
2022/10/07 12:21:50;;;;;;;;;;;;;;;;;;4976841;28;19910;-80
2022/10/07 12:24:15;;;;;;;;;;;;;;;;;;4975684;28;19957;-78
2022/10/07 12:26:42;;;;;;;;;;;;;;;;;;4981352;28;20257;-78
2022/10/07 12:29:17;;;;;;;;;;;;;;;;;;4982391;28;19922;-78
2022/10/07 12:31:42;;;;;;;;;;;;;;;;;;4981312;28;19918;-78
2022/10/07 12:34:08;;;;;;;;;;;;;;;;;;4981675;28;20224;-78
2022/10/07 12:36:34;;;;;;;;;;;;;;;;;;4976642;28;19920;-79
2022/10/07 12:38:59;;;;;;;;;;;;;;;;;;4980288;28;19926;-77
2022/10/07 12:41:24;;;;;;;;;;;;;;;;;;4980871;28;19922;-78
2022/10/07 12:44:05;;;;;;;;;;;;;;;;;;4981513;28;19922;-78
2022/10/07 12:46:36;;;;;;;;;;;;;;;;;;4981116;28;20206;-79
2022/10/07 12:49:05;;;;;;;;;;;;;;;;;;4981303;28;19942;-79
2022/10/07 12:51:37;;;;;;;;;;;;;;;;;;4979350;28;19914;-78
2022/10/07 12:54:04;;;;;;;;;;;;;;;;;;4972793;28;19922;-79
2022/10/07 12:56:29;;;;;;;;;;;;;;;;;;4977681;28;20153;-78
2022/10/07 13:01:55;;;;;;;;;;;;;;;;;;4981501;28;19937;-79
2022/10/07 13:04:46;;;;;;;;;;;;;;;;;;4980461;28;20105;-79
2022/10/07 13:07:14;;;;;;;;;;;;;;;;;;4977976;28;19914;-78
2022/10/07 13:09:39;;;;;;;;;;;;;;;;;;4979098;28;19914;-78
2022/10/07 13:12:30;;;;;;;;;;;;;;;;;;4980903;28;19937;-79
2022/10/07 13:14:55;;;;;;;;;;;;;;;;;;4976361;28;19929;-78
2022/10/07 13:17:24;;;;;;;;;;;;;;;;;;4974800;28;19909;-79
2022/10/07 13:20:01;;;;;;;;;;;;;;;;;;4981078;28;19914;-79
2022/10/07 13:22:27;;;;;;;;;;;;;;;;;;4980671;28;19922;-78
2022/10/07 13:24:53;;;;;;;;;;;;;;;;;;4980501;28;20210;-78
2022/10/07 13:27:23;;;;;;;;;;;;;;;;;;4978325;28;19956;-78
2022/10/07 13:29:48;;;;;;;;;;;;;;;;;;4976063;28;19972;-81
2022/10/07 13:32:16;;;;;;;;;;;;;;;;;;4977809;28;20172;-80
2022/10/07 13:34:42;;;;;;;;;;;;;;;;;;4979548;28;19926;-81
2022/10/07 13:37:26;;;;;;;;;;;;;;;;;;4978113;28;19910;-80
2022/10/07 13:39:52;;;;;;;;;;;;;;;;;;4980489;28;19976;-78
2022/10/07 13:42:17;;;;;;;;;;;;;;;;;;4980346;28;19937;-79
2022/10/07 13:44:43;;;;;;;;;;;;;;;;;;4980861;28;19922;-78
2022/10/07 13:47:16;;;;;;;;;;;;;;;;;;4981782;28;19985;-78
2022/10/07 13:49:42;;;;;;;;;;;;;;;;;;4980158;28;19910;-79
2022/10/07 13:52:17;;;;;;;;;;;;;;;;;;4979448;28;20244;-78
2022/10/07 13:54:48;;;;;;;;;;;;;;;;;;4981089;28;19917;-78
2022/10/07 13:57:13;;;;;;;;;;;;;;;;;;4980252;28;19933;-80
2022/10/07 13:59:39;;;;;;;;;;;;;;;;;;4980433;28;19918;-78
2022/10/07 14:02:08;;;;;;;;;;;;;;;;;;4980906;28;19922;-79
2022/10/07 14:04:33;;;;;;;;;;;;;;;;;;4980705;28;19918;-78
2022/10/07 14:07:11;;;;;;;;;;;;;;;;;;4981210;28;19949;-78
2022/10/07 14:09:36;;;;;;;;;;;;;;;;;;4982751;28;19910;-78
2022/10/07 14:12:09;;;;;;;;;;;;;;;;;;4984553;28;19921;-78
2022/10/07 14:14:35;;;;;;;;;;;;;;;;;;4982189;28;19910;-80
2022/10/07 14:17:06;;;;;;;;;;;;;;;;;;4984886;28;19910;-80
2022/10/07 14:19:31;;;;;;;;;;;;;;;;;;4984925;28;19910;-80
2022/10/07 14:22:01;;;;;;;;;;;;;;;;;;4985259;28;19933;-79
2022/10/07 14:24:26;;;;;;;;;;;;;;;;;;4983637;28;19910;-78
2022/10/07 14:26:51;;;;;;;;;;;;;;;;;;4985094;28;19917;-81
2022/10/07 14:29:20;;;;;;;;;;;;;;;;;;4984661;28;19910;-79
2022/10/07 14:37:25;;;;;;;;;;;;;;;;;;4983802;28;19939;-78
2022/10/07 14:39:51;;;;;;;;;;;;;;;;;;4983635;28;20217;-80
2022/10/07 14:42:24;;;;;;;;;;;;;;;;;;4984246;28;20101;-80
2022/10/07 14:44:54;;;;;;;;;;;;;;;;;;4981877;28;19981;-79
2022/10/07 14:47:20;;;;;;;;;;;;;;;;;;4981029;28;20224;-80
2022/10/07 14:49:46;;;;;;;;;;;;;;;;;;4984121;28;19910;-79
2022/10/07 14:52:13;;;;;;;;;;;;;;;;;;4984231;28;19918;-78
2022/10/07 14:54:39;;;;;;;;;;;;;;;;;;4984095;28;20069;-80
2022/10/07 14:57:04;;;;;;;;;;;;;;;;;;4983148;28;19930;-80
2022/10/07 14:59:29;;;;;;;;;;;;;;;;;;4982779;28;19918;-79
2022/10/07 15:01:56;;;;;;;;;;;;;;;;;;4984273;28;20217;-79
2022/10/07 15:04:21;;;;;;;;;;;;;;;;;;4981230;28;19910;-78
2022/10/07 15:06:46;;;;;;;;;;;;;;;;;;4983580;28;20118;-79
2022/10/07 15:09:12;;;;;;;;;;;;;;;;;;4982990;28;19917;-78
2022/10/07 15:11:38;;;;;;;;;;;;;;;;;;4980808;28;19921;-82
2022/10/07 15:14:03;;;;;;;;;;;;;;;;;;4982344;28;19918;-79
2022/10/07 15:16:29;;;;;;;;;;;;;;;;;;4978716;28;20242;-80
2022/10/07 15:18:54;;;;;;;;;;;;;;;;;;4980418;28;19918;-79
2022/10/07 15:21:20;;;;;;;;;;;;;;;;;;4981339;28;20125;-78
2022/10/07 15:23:50;;;;;;;;;;;;;;;;;;4974393;28;20005;-81
2022/10/07 15:26:15;;;;;;;;;;;;;;;;;;4969505;28;19922;-78
2022/10/07 15:28:41;;;;;;;;;;;;;;;;;;4970436;28;20029;-81
2022/10/07 15:31:07;;;;;;;;;;;;;;;;;;4967189;28;20027;-80
2022/10/07 15:33:33;;;;;;;;;;;;;;;;;;4971304;28;19930;-80
2022/10/07 15:35:59;;;;;;;;;;;;;;;;;;4973359;28;19910;-79
2022/10/07 15:38:25;;;;;;;;;;;;;;;;;;4973601;28;19998;-79
2022/10/07 15:40:55;;;;;;;;;;;;;;;;;;4968535;28;19969;-78
2022/10/07 15:43:21;;;;;;;;;;;;;;;;;;4970319;28;19914;-79
2022/10/07 15:45:50;;;;;;;;;;;;;;;;;;4982862;28;19933;-79
2022/10/07 15:48:22;;;;;;;;;;;;;;;;;;4977288;28;20381;-79
2022/10/07 15:50:48;;;;;;;;;;;;;;;;;;4986030;28;19914;-78
2022/10/07 15:53:14;;;;;;;;;;;;;;;;;;4966438;28;19910;-82
2022/10/07 15:55:39;;;;;;;;;;;;;;;;;;4969155;28;20206;-78
2022/10/07 15:58:04;;;;;;;;;;;;;;;;;;4996057;28;19914;-79
2022/10/07 16:00:29;;;;;;;;;;;;;;;;;;4980557;28;19968;-80
2022/10/07 16:02:56;;;;;;;;;;;;;;;;;;4980554;28;19914;-79
2022/10/07 16:05:23;;;;;;;;;;;;;;;;;;4979693;28;19929;-80
2022/10/07 16:07:48;;;;;;;;;;;;;;;;;;4975423;28;20322;-79
2022/10/07 16:10:14;;;;;;;;;;;;;;;;;;4977027;28;20467;-79
2022/10/07 16:12:39;;;;;;;;;;;;;;;;;;4982777;28;19990;-79
2022/10/07 16:15:05;;;;;;;;;;;;;;;;;;4978790;28;19929;-82
2022/10/07 16:17:30;;;;;;;;;;;;;;;;;;4980562;28;19918;-80
2022/10/07 16:19:56;;;;;;;;;;;;;;;;;;4977351;28;20287;-80
2022/10/07 16:22:21;;;;;;;;;;;;;;;;;;4980820;28;19945;-82
2022/10/07 16:24:46;;;;;;;;;;;;;;;;;;4979869;28;19929;-81
2022/10/07 16:27:12;;;;;;;;;;;;;;;;;;4977751;28;19914;-80
2022/10/07 16:32:21;;;;;;;;;;;;;;;;;;4979701;28;19957;-79
2022/10/07 16:34:47;;;;;;;;;;;;;;;;;;4978702;28;19914;-80
2022/10/07 16:37:13;;;;;;;;;;;;;;;;;;4981026;28;19910;-79
2022/10/07 16:39:38;;;;;;;;;;;;;;;;;;4981280;28;19984;-80
2022/10/07 16:42:03;;;;;;;;;;;;;;;;;;4980682;28;19921;-80
2022/10/07 16:44:28;;;;;;;;;;;;;;;;;;4979863;28;20190;-80
2022/10/07 16:46:56;;;;;;;;;;;;;;;;;;4974786;28;19914;-80
2022/10/07 16:49:24;;;;;;;;;;;;;;;;;;4975297;28;19922;-80
2022/10/07 16:51:49;;;;;;;;;;;;;;;;;;4972118;28;19957;-81
2022/10/07 16:54:16;;;;;;;;;;;;;;;;;;4974335;28;19928;-81
2022/10/07 16:56:45;;;;;;;;;;;;;;;;;;4970344;28;20069;-80
2022/10/07 16:59:11;;;;;;;;;;;;;;;;;;4978363;28;19922;-81
2022/10/07 17:01:37;;;;;;;;;;;;;;;;;;4980031;28;20282;-80
2022/10/07 17:04:02;;;;;;;;;;;;;;;;;;4975549;28;19920;-80
2022/10/07 17:06:29;;;;;;;;;;;;;;;;;;4979163;28;19926;-80
2022/10/07 17:08:55;;;;;;;;;;;;;;;;;;4980449;28;19965;-80
2022/10/07 17:11:30;;;;;;;;;;;;;;;;;;4976490;28;19910;-80
2022/10/07 17:14:15;;;;;;;;;;;;;;;;;;4973831;28;19914;-79
2022/10/07 17:16:41;;;;;;;;;;;;;;;;;;4978928;28;19929;-80